All
Mundine Airport YDNE Weather
There is no TAF data available at YDNE or any nearby airports.
There is no METAR data available at YDNE. Showing METAR data for YGDI (12 mi NE).
Recent GOO METAR history (no data for YDNE)
| Date | Time (AEST) | Flight Rules | Wind Dir. | Speed | Type | Height AGL (ft) | Visibility | Temp (°C) | Temp (°F) | Dew Point (°C) | Dew Point (°F) | Rel. Humid. | Pressure | Density Altitude | Remarks |
|---|---|---|---|---|---|---|---|---|---|---|---|---|---|---|---|
| 05-May | 07:00 | n/a | 50° | 2 kt | Missing | 18° | 64° | 14° | 57° | 77% | 1018 mb | 932 ft | |||
| 05-May | 06:00 | n/a | Calm | Missing | 17° | 62° | 13° | 55° | 77% | 1017 mb | 842 ft | ||||
| 05-May | 05:00 | n/a | 10° | 3 kt | Missing | 19° | 66° | 14° | 57° | 73% | 1017 mb | 1,082 ft | |||
| 05-May | 04:00 | n/a | 290° | 1 kt | Missing | 20° | 68° | 14° | 57° | 68% | 1017 mb | 1,202 ft | |||
| 05-May | 03:00 | n/a | 10° | 5 kt | Missing | 20° | 68° | 15° | 59° | 73% | 1016 mb | 1,232 ft | |||
| 05-May | 02:00 | n/a | 20° | 4 kt | Missing | 19° | 66° | 13° | 55° | 68% | 1016 mb | 1,112 ft | |||
| 05-May | 01:00 | n/a | 50° | 4 kt | Missing | 19° | 66° | 11° | 51° | 60% | 1016 mb | 1,112 ft | |||
| 05-May | 00:00 | n/a | 50° | 5 kt | Missing | 21° | 69° | 11° | 51° | 53% | 1016 mb | 1,352 ft | |||
| 04-May | 23:00 | n/a | 50° | 5 kt | Missing | 21° | 69° | 10° | 50° | 49% | 1016 mb | 1,352 ft | |||
| 04-May | 22:00 | n/a | Calm | Missing | 19° | 66° | 9° | 48° | 52% | 1017 mb | 1,082 ft | ||||
| 04-May | 21:00 | n/a | 100° | 1 kt | Missing | 20° | 68° | 10° | 50° | 53% | 1017 mb | 1,202 ft | |||
| 04-May | 20:00 | n/a | 110° | 3 kt | Missing | 21° | 69° | 11° | 51° | 53% | 1016 mb | 1,352 ft | |||
| 04-May | 19:00 | n/a | 80° | 2 kt | Missing | 22° | 71° | 11° | 51° | 50% | 1016 mb | 1,472 ft | |||
| 04-May | 18:00 | n/a | 80° | 2 kt | Missing | 24° | 75° | 10° | 50° | 41% | 1015 mb | 1,741 ft | |||
| 04-May | 17:00 | n/a | 360° | 1 kt | Missing | 27° | 80° | 11° | 51° | 37% | 1015 mb | 2,101 ft | |||
| 04-May | 16:00 | n/a | 300° | 4 kt | Missing | 29° | 84° | 11° | 51° | 33% | 1015 mb | 2,341 ft | |||
| 04-May | 15:00 | n/a | 290° | 3 kt | Missing | 29° | 84° | 12° | 53° | 35% | 1015 mb | 2,341 ft | |||
| 04-May | 14:00 | n/a | 260° | 3 kt | Missing | 29° | 84° | 11° | 51° | 33% | 1015 mb | 2,341 ft | |||
| 04-May | 13:00 | n/a | 340° | 5 kt | Missing | 28° | 82° | 11° | 51° | 35% | 1016 mb | 2,192 ft | |||
| 04-May | 12:00 | n/a | 320° | 4 kt | Missing | 27° | 80° | 12° | 53° | 39% | 1017 mb | 2,042 ft | |||
| 04-May | 11:00 | n/a | 30° | 6 kt | Missing | 25° | 77° | 13° | 55° | 47% | 1018 mb | 1,772 ft | |||
| 04-May | 10:00 | n/a | 20° | 9 kt | Missing | 23° | 73° | 14° | 57° | 57% | 1019 mb | 1,503 ft | |||
| 04-May | 09:00 | n/a | 50° | 8 kt | Missing | 21° | 69° | 14° | 57° | 64% | 1019 mb | 1,263 ft | |||
| 04-May | 08:00 | n/a | 70° | 6 kt | Missing | 18° | 64° | 14° | 57° | 77% | 1019 mb | 903 ft |
Login
| Your browser is unsupported. upgrade your browser |
